Time;durP1;ratioP1;P1;durP2;ratioP2;P2;SDS_P1;SDS_P2;PMS_P1;PMS_P2;Temp;Humidity;BMP_temperature;BMP_pressure;BME280_temperature;BME280_humidity;BME280_pressure;Samples;Min_cycle;Max_cycle;Signal;HPM_P1;HPM_P2
2021/07/15 00:01:43;;;;;;;2.60;2.25;;;23.80;91.20;;;;;;4193029;28;20134;-53
2021/07/15 00:04:05;;;;;;;7.97;1.85;;;23.80;91.20;;;;;;4192777;28;20048;-49
2021/07/15 00:06:32;;;;;;;0.60;0.60;;;23.80;91.60;;;;;;4193174;28;20111;-48
2021/07/15 00:08:54;;;;;;;2.22;2.08;;;23.80;91.30;;;;;;4192825;28;20056;-56
2021/07/15 00:11:17;;;;;;;0.50;0.50;;;23.80;91.30;;;;;;4194492;27;20582;-50
2021/07/15 00:13:40;;;;;;;0.30;0.30;;;23.80;91.30;;;;;;4207181;27;20047;-48
2021/07/15 00:16:05;;;;;;;0.95;0.95;;;23.80;91.30;;;;;;4209743;28;20150;-51
2021/07/15 00:18:31;;;;;;;2.30;1.25;;;23.70;91.30;;;;;;4208995;28;20522;-51
2021/07/15 00:20:54;;;;;;;0.63;0.50;;;23.70;91.30;;;;;;4192831;28;20052;-49
2021/07/15 00:23:18;;;;;;;0.85;0.85;;;23.80;91.30;;;;;;4191735;28;20461;-50
2021/07/15 00:25:42;;;;;;;0.55;0.55;;;23.70;91.30;;;;;;4192485;28;20055;-52
2021/07/15 00:28:04;;;;;;;1.50;0.77;;;23.80;91.30;;;;;;4192633;28;20513;-50
2021/07/15 00:30:27;;;;;;;0.40;0.40;;;23.70;91.30;;;;;;4192992;28;20126;-52
2021/07/15 00:32:49;;;;;;;0.10;0.10;;;23.80;91.40;;;;;;4206808;27;20051;-53
2021/07/15 00:35:12;;;;;;;0.20;0.20;;;23.70;91.40;;;;;;4209619;28;20055;-49
2021/07/15 00:37:34;;;;;;;1.25;0.80;;;23.70;91.40;;;;;;4206529;28;20050;-49
2021/07/15 00:39:58;;;;;;;0.98;0.70;;;23.70;91.40;;;;;;4209234;28;20136;-47
2021/07/15 00:42:20;;;;;;;0.75;0.75;;;23.70;91.40;;;;;;4207830;28;20066;-51
2021/07/15 00:44:42;;;;;;;0.30;0.30;;;23.70;91.40;;;;;;4208990;27;20036;-48
2021/07/15 00:47:04;;;;;;;0.20;0.20;;;23.70;91.40;;;;;;4192296;28;20105;-51
2021/07/15 00:49:26;;;;;;;0.20;0.20;;;23.70;91.40;;;;;;4192492;28;20048;-50
2021/07/15 00:51:48;;;;;;;0.80;0.80;;;23.70;91.40;;;;;;4192441;28;20051;-54
2021/07/15 00:54:11;;;;;;;0.80;0.68;;;23.70;91.40;;;;;;4192192;28;20067;-51
2021/07/15 00:56:35;;;;;;;2.05;0.60;;;23.70;91.40;;;;;;4192364;28;20586;-52
2021/07/15 00:58:57;;;;;;;0.38;0.38;;;23.70;91.50;;;;;;4192033;28;20059;-54
2021/07/15 01:01:19;;;;;;;0.45;0.45;;;23.70;91.50;;;;;;4191990;28;20522;-52
2021/07/15 01:03:41;;;;;;;0.10;0.10;;;23.70;91.50;;;;;;4192035;28;20063;-51
2021/07/15 01:06:03;;;;;;;4.43;1.27;;;23.60;91.50;;;;;;4192156;28;20053;-51
2021/07/15 01:08:25;;;;;;;0.50;0.50;;;23.60;91.50;;;;;;4191907;28;20117;-52
2021/07/15 01:10:49;;;;;;;1.38;1.38;;;23.60;91.50;;;;;;4192014;28;20102;-54
2021/07/15 01:13:30;;;;;;;0.35;0.35;;;23.60;91.50;;;;;;4191961;28;20516;-51
2021/07/15 01:15:59;;;;;;;2.35;1.50;;;23.60;91.50;;;;;;4191763;28;20049;-52
2021/07/15 01:18:42;;;;;;;0.20;0.20;;;23.60;91.50;;;;;;4192014;28;20064;-50
2021/07/15 01:21:32;;;;;;;0.63;0.63;;;23.60;91.50;;;;;;4191570;28;20127;-49
2021/07/15 01:24:17;;;;;;;1.65;1.55;;;23.60;91.50;;;;;;4190075;28;20126;-52
2021/07/15 01:26:55;;;;;;;0.63;0.63;;;23.60;91.50;;;;;;4202766;27;20044;-49
2021/07/15 01:29:27;;;;;;;1.65;1.55;;;23.60;91.60;;;;;;4191398;28;20532;-51
2021/07/15 01:31:54;;;;;;;0.28;0.28;;;23.60;91.60;;;;;;4207481;28;20083;-50
2021/07/15 01:34:20;;;;;;;0.50;0.50;;;23.60;91.60;;;;;;4206816;28;20051;-51
2021/07/15 01:36:45;;;;;;;1.27;1.27;;;23.60;91.60;;;;;;4208445;28;20047;-51
2021/07/15 01:39:09;;;;;;;8.05;1.83;;;23.60;91.60;;;;;;4208081;28;20055;-49
2021/07/15 01:41:33;;;;;;;0.05;0.05;;;23.60;92.00;;;;;;4191442;28;20719;-52
2021/07/15 01:44:00;;;;;;;0.57;0.57;;;23.60;91.60;;;;;;4191719;28;20057;-53
2021/07/15 01:46:23;;;;;;;0.73;0.73;;;23.60;91.60;;;;;;4191217;28;20491;-52
2021/07/15 01:48:47;;;;;;;0.22;0.22;;;23.60;91.70;;;;;;4191280;28;20125;-54
2021/07/15 01:51:10;;;;;;;0.25;0.25;;;23.60;91.60;;;;;;4191543;28;20139;-50
2021/07/15 01:53:33;;;;;;;1.23;0.57;;;23.60;91.70;;;;;;4191487;28;20556;-51
2021/07/15 01:55:57;;;;;;;0.65;0.60;;;23.60;91.60;;;;;;4191218;28;20553;-49
2021/07/15 01:58:19;;;;;;;20.05;1.73;;;23.60;91.70;;;;;;4191416;28;20055;-52
2021/07/15 02:00:42;;;;;;;2.38;1.30;;;23.50;91.70;;;;;;4174855;28;20458;-51
2021/07/15 02:03:07;;;;;;;0.50;0.50;;;23.50;91.60;;;;;;4190275;28;20047;-51
2021/07/15 02:05:32;;;;;;;0.35;0.35;;;23.50;91.70;;;;;;4191030;28;20056;-50
2021/07/15 02:07:56;;;;;;;0.60;0.60;;;23.50;91.70;;;;;;4190924;28;20460;-50
2021/07/15 02:10:22;;;;;;;0.80;0.80;;;23.50;91.70;;;;;;4191476;28;20087;-51
2021/07/15 02:12:45;;;;;;;0.30;0.30;;;23.50;91.70;;;;;;4191038;28;20127;-50
2021/07/15 02:15:07;;;;;;;0.30;0.30;;;23.50;91.70;;;;;;4191265;28;20511;-54
2021/07/15 02:17:34;;;;;;;5.82;1.10;;;23.50;91.70;;;;;;4190889;28;20140;-50
2021/07/15 02:19:57;;;;;;;0.65;0.65;;;23.50;91.70;;;;;;4190914;28;20049;-55
2021/07/15 02:22:22;;;;;;;0.10;0.10;;;23.50;91.70;;;;;;4190935;28;20056;-51
2021/07/15 02:24:47;;;;;;;0.30;0.30;;;23.50;91.80;;;;;;4190965;28;20056;-52
2021/07/15 02:27:11;;;;;;;0.93;0.93;;;23.50;92.10;;;;;;4191269;28;20066;-54
2021/07/15 02:29:35;;;;;;;0.55;0.55;;;23.50;91.80;;;;;;4190547;28;20048;-53
2021/07/15 02:32:00;;;;;;;1.30;1.00;;;23.50;91.80;;;;;;4190756;28;20056;-52
2021/07/15 02:34:27;;;;;;;0.82;0.80;;;23.50;91.80;;;;;;4191175;28;20075;-52
2021/07/15 02:36:50;;;;;;;0.47;0.47;;;23.50;92.20;;;;;;4190875;28;20471;-50
2021/07/15 02:39:13;;;;;;;5.03;1.48;;;23.50;92.20;;;;;;4190988;28;20395;-54
2021/07/15 02:41:35;;;;;;;2.63;0.30;;;23.50;91.80;;;;;;4190656;28;20457;-48
2021/07/15 02:43:57;;;;;;;0.65;0.65;;;23.50;91.80;;;;;;4186271;28;20501;-52
2021/07/15 02:46:19;;;;;;;1.52;1.50;;;23.50;91.80;;;;;;4190756;28;20052;-52
2021/07/15 02:48:41;;;;;;;0.38;0.38;;;23.50;91.80;;;;;;4190848;28;20051;-51
2021/07/15 02:51:04;;;;;;;4.43;2.83;;;23.50;91.80;;;;;;4207657;28;20125;-54
2021/07/15 02:53:26;;;;;;;38.35;1.67;;;23.50;91.80;;;;;;4207328;28;20055;-52
2021/07/15 02:55:57;;;;;;;0.43;0.43;;;23.50;91.80;;;;;;4207315;28;20050;-51
2021/07/15 02:58:23;;;;;;;1.67;1.25;;;23.50;91.80;;;;;;4207522;28;20097;-52
2021/07/15 03:00:50;;;;;;;0.57;0.57;;;23.50;91.80;;;;;;4207259;28;20066;-53
2021/07/15 03:03:21;;;;;;;0.50;0.50;;;23.40;91.80;;;;;;4193116;27;20094;-50
2021/07/15 03:05:49;;;;;;;0.60;0.60;;;23.40;91.80;;;;;;4207258;27;20568;-53
2021/07/15 03:08:19;;;;;;;0.40;0.40;;;23.40;91.80;;;;;;4207181;28;20051;-52
2021/07/15 03:10:42;;;;;;;0.55;0.55;;;23.40;91.90;;;;;;4206957;28;20055;-53
2021/07/15 03:13:09;;;;;;;0.05;0.05;;;23.40;91.90;;;;;;4206962;28;20051;-52
2021/07/15 03:15:35;;;;;;;1.02;1.02;;;23.40;91.90;;;;;;4207720;28;20047;-50
2021/07/15 03:17:59;;;;;;;0.85;0.85;;;23.40;91.90;;;;;;4209292;28;20054;-52
2021/07/15 03:20:26;;;;;;;1.40;1.33;;;23.40;91.90;;;;;;4209765;28;20113;-52
2021/07/15 03:22:53;;;;;;;2.75;0.75;;;23.40;91.90;;;;;;4210614;28;20743;-52
2021/07/15 03:25:17;;;;;;;0.43;0.43;;;23.40;91.90;;;;;;4208956;28;21586;-53
2021/07/15 03:27:43;;;;;;;0.57;0.57;;;23.40;91.90;;;;;;4209421;28;20452;-53
2021/07/15 03:30:08;;;;;;;0.10;0.10;;;23.40;91.90;;;;;;4210050;28;20052;-53
2021/07/15 03:32:30;;;;;;;0.08;0.08;;;23.40;91.90;;;;;;4209862;28;20052;-52
2021/07/15 03:34:53;;;;;;;0.03;0.03;;;23.40;91.90;;;;;;4210061;28;20048;-54
2021/07/15 03:37:17;;;;;;;1.27;1.02;;;23.40;91.90;;;;;;4193725;28;20410;-49
2021/07/15 03:39:40;;;;;;;0.25;0.25;;;23.40;91.90;;;;;;4193617;28;20483;-53
2021/07/15 03:42:02;;;;;;;0.30;0.30;;;23.40;91.90;;;;;;4176879;28;20080;-50
2021/07/15 03:44:26;;;;;;;0.75;0.75;;;23.40;91.80;;;;;;4176768;28;20052;-50
2021/07/15 03:46:51;;;;;;;0.88;0.88;;;23.40;91.90;;;;;;4183859;28;20121;-50
2021/07/15 03:49:16;;;;;;;0.40;0.40;;;23.30;91.80;;;;;;4208904;27;20059;-49
2021/07/15 03:51:38;;;;;;;0.75;0.75;;;23.40;91.80;;;;;;4209880;28;20415;-51
2021/07/15 03:54:01;;;;;;;1.10;0.93;;;23.40;91.80;;;;;;4210108;28;20048;-51
2021/07/15 03:56:23;;;;;;;2.53;1.25;;;23.30;91.80;;;;;;4209560;28;20097;-52
2021/07/15 03:58:47;;;;;;;0.10;0.10;;;23.30;91.80;;;;;;4208367;28;20040;-52
2021/07/15 04:01:10;;;;;;;0.00;0.00;;;23.40;91.80;;;;;;4192349;28;20057;-51
2021/07/15 04:03:34;;;;;;;1.40;1.30;;;23.30;91.80;;;;;;4193026;28;20098;-49
2021/07/15 04:05:57;;;;;;;0.20;0.20;;;23.30;91.80;;;;;;4191489;28;20060;-51
2021/07/15 04:08:21;;;;;;;0.55;0.55;;;23.30;91.80;;;;;;4193261;28;20449;-49
2021/07/15 04:10:44;;;;;;;0.10;0.10;;;23.30;92.20;;;;;;4176499;28;20488;-50
2021/07/15 04:13:07;;;;;;;0.50;0.50;;;23.30;91.80;;;;;;4191541;28;20140;-47
2021/07/15 04:15:39;;;;;;;0.10;0.10;;;23.30;91.80;;;;;;4193035;28;22703;-52
2021/07/15 04:18:04;;;;;;;0.73;0.73;;;23.30;91.80;;;;;;4192838;28;20045;-52
2021/07/15 04:20:28;;;;;;;0.43;0.43;;;23.30;91.80;;;;;;4201782;28;20482;-51
2021/07/15 04:22:52;;;;;;;0.65;0.65;;;23.30;91.80;;;;;;4208454;28;21024;-52
2021/07/15 04:25:18;;;;;;;0.40;0.40;;;23.30;91.80;;;;;;4209244;28;20410;-50
2021/07/15 04:27:43;;;;;;;0.32;0.32;;;23.30;91.80;;;;;;4209458;28;20055;-51
2021/07/15 04:30:08;;;;;;;1.55;1.45;;;23.30;91.80;;;;;;4208141;28;20060;-50
2021/07/15 04:32:34;;;;;;;0.28;0.28;;;23.30;91.80;;;;;;4209374;28;20819;-51
2021/07/15 04:34:58;;;;;;;1.08;1.08;;;23.30;91.80;;;;;;4209399;28;20502;-48
2021/07/15 04:37:23;;;;;;;0.55;0.55;;;23.30;91.80;;;;;;4209138;28;20056;-50
2021/07/15 04:39:46;;;;;;;0.88;0.60;;;23.30;91.80;;;;;;4209168;28;20044;-48
2021/07/15 04:42:08;;;;;;;1.02;1.02;;;23.30;91.80;;;;;;4208951;28;20073;-50
2021/07/15 04:44:32;;;;;;;0.45;0.45;;;23.30;91.80;;;;;;4208824;28;20063;-52
2021/07/15 04:46:54;;;;;;;0.30;0.30;;;23.30;91.80;;;;;;4208690;28;20048;-55
2021/07/15 04:49:16;;;;;;;1.90;1.50;;;23.20;91.70;;;;;;4208512;28;20051;-52
2021/07/15 04:51:40;;;;;;;0.30;0.30;;;23.20;91.70;;;;;;4209297;28;20047;-51
2021/07/15 04:54:05;;;;;;;0.68;0.68;;;23.20;91.80;;;;;;4209400;28;21529;-52
2021/07/15 04:56:28;;;;;;;0.43;0.43;;;23.20;91.70;;;;;;4209065;28;20136;-50
2021/07/15 04:58:52;;;;;;;0.52;0.52;;;23.20;91.80;;;;;;4208801;28;20048;-48
2021/07/15 05:01:14;;;;;;;0.20;0.20;;;23.20;91.70;;;;;;4196934;28;20070;-50
2021/07/15 05:03:37;;;;;;;0.82;0.82;;;23.20;91.70;;;;;;4208869;28;20075;-48
2021/07/15 05:06:00;;;;;;;0.15;0.15;;;23.20;91.70;;;;;;4209403;28;20048;-50
2021/07/15 05:08:22;;;;;;;0.63;0.63;;;23.20;91.70;;;;;;4208393;28;20044;-49
2021/07/15 05:10:47;;;;;;;0.10;0.10;;;23.20;91.70;;;;;;4209010;28;20052;-50
2021/07/15 05:13:09;;;;;;;0.98;0.98;;;23.20;92.10;;;;;;4208694;28;20141;-51
2021/07/15 05:15:31;;;;;;;0.98;0.95;;;23.20;91.70;;;;;;4208566;28;20044;-48
2021/07/15 05:17:54;;;;;;;0.82;0.82;;;23.20;91.70;;;;;;4191999;28;20047;-51
2021/07/15 05:20:16;;;;;;;2.00;1.85;;;23.20;91.70;;;;;;4204426;28;20048;-51
2021/07/15 05:22:38;;;;;;;8.68;3.40;;;23.20;91.70;;;;;;4207120;28;20050;-48
2021/07/15 05:25:04;;;;;;;0.35;0.35;;;23.20;91.70;;;;;;4208577;28;20050;-56
2021/07/15 05:27:27;;;;;;;0.55;0.55;;;23.20;91.70;;;;;;4208740;28;20505;-52
2021/07/15 05:29:49;;;;;;;1.13;0.70;;;23.20;91.80;;;;;;4207973;28;20054;-51
2021/07/15 05:32:12;;;;;;;0.05;0.05;;;23.20;92.10;;;;;;4191963;28;20056;-51
2021/07/15 05:34:34;;;;;;;3.20;1.10;;;23.20;91.90;;;;;;4192036;28;20052;-51
2021/07/15 05:36:56;;;;;;;2.38;2.28;;;23.20;91.90;;;;;;4191651;28;20048;-49
2021/07/15 05:39:19;;;;;;;0.35;0.35;;;23.20;91.80;;;;;;4191735;28;20975;-46
2021/07/15 05:41:41;;;;;;;1.20;1.20;;;23.20;91.80;;;;;;4190165;28;20049;-46
2021/07/15 05:44:07;;;;;;;8.68;2.08;;;23.20;91.80;;;;;;4191531;28;20490;-48
2021/07/15 05:46:29;;;;;;;0.13;0.13;;;23.20;91.70;;;;;;4191552;28;20052;-47
2021/07/15 05:48:51;;;;;;;1.45;0.63;;;23.20;91.70;;;;;;4191590;28;20135;-46
2021/07/15 05:51:13;;;;;;;0.43;0.43;;;23.20;91.70;;;;;;4174994;28;20458;-53
2021/07/15 05:53:35;;;;;;;0.57;0.45;;;23.20;92.10;;;;;;4174989;28;20060;-50
2021/07/15 05:55:58;;;;;;;0.80;0.80;;;23.10;91.70;;;;;;4175037;28;20057;-47
2021/07/15 05:58:21;;;;;;;5.93;1.08;;;23.10;91.70;;;;;;4188963;28;20076;-47
2021/07/15 06:00:44;;;;;;;0.10;0.10;;;23.10;91.70;;;;;;4191273;28;20445;-48
2021/07/15 06:03:06;;;;;;;0.05;0.05;;;23.10;91.70;;;;;;4191498;28;20059;-49
2021/07/15 06:05:30;;;;;;;0.20;0.20;;;23.10;91.70;;;;;;4190503;28;20040;-48
2021/07/15 06:07:52;;;;;;;0.25;0.25;;;23.10;91.70;;;;;;4190481;28;20037;-46
2021/07/15 06:10:15;;;;;;;1.60;1.55;;;23.10;91.70;;;;;;4191076;28;20059;-46
2021/07/15 06:12:37;;;;;;;0.20;0.20;;;23.10;91.70;;;;;;4190903;28;20123;-47
2021/07/15 06:15:00;;;;;;;1.08;1.08;;;23.10;91.70;;;;;;4191053;28;20422;-48
2021/07/15 06:17:23;;;;;;;0.00;0.00;;;23.10;91.70;;;;;;4190723;28;20048;-48
2021/07/15 06:19:45;;;;;;;0.45;0.40;;;23.10;91.70;;;;;;4191006;28;20044;-48
2021/07/15 06:22:07;;;;;;;1.13;0.85;;;23.10;91.70;;;;;;4191198;28;20048;-51
2021/07/15 06:24:30;;;;;;;1.50;0.93;;;23.10;91.70;;;;;;4190435;28;20056;-49
2021/07/15 06:26:52;;;;;;;0.55;0.55;;;23.10;91.70;;;;;;4191176;28;20059;-47
2021/07/15 06:29:14;;;;;;;0.52;0.52;;;23.10;91.70;;;;;;4205892;28;20059;-47
2021/07/15 06:31:37;;;;;;;0.75;0.75;;;23.10;91.70;;;;;;4207565;28;20052;-48
2021/07/15 06:34:01;;;;;;;0.00;0.00;;;23.10;91.70;;;;;;4207468;28;20044;-47
2021/07/15 06:36:23;;;;;;;0.20;0.20;;;23.00;91.70;;;;;;4207627;28;20469;-45
2021/07/15 06:38:47;;;;;;;3.25;0.93;;;23.00;91.70;;;;;;4207538;28;20044;-47
2021/07/15 06:41:11;;;;;;;0.10;0.10;;;23.00;91.70;;;;;;4207363;28;20086;-47
2021/07/15 06:43:34;;;;;;;0.80;0.80;;;23.10;91.70;;;;;;4205920;28;20506;-50
2021/07/15 06:45:56;;;;;;;0.17;0.17;;;23.10;91.70;;;;;;4207601;28;20051;-47
2021/07/15 06:48:19;;;;;;;0.00;0.00;;;23.00;91.70;;;;;;4207851;28;20076;-45
2021/07/15 06:50:43;;;;;;;0.28;0.28;;;23.00;91.70;;;;;;4207529;28;22877;-49
2021/07/15 06:53:06;;;;;;;0.90;0.80;;;23.00;91.70;;;;;;4209340;28;20070;-51
2021/07/15 06:55:28;;;;;;;0.38;0.38;;;23.00;91.70;;;;;;4196246;28;20121;-50
2021/07/15 06:57:50;;;;;;;0.45;0.45;;;23.00;91.70;;;;;;4195860;28;20402;-51
2021/07/15 07:00:15;;;;;;;0.45;0.45;;;23.00;91.70;;;;;;4210993;28;20105;-47
2021/07/15 07:02:41;;;;;;;0.82;0.77;;;23.00;91.70;;;;;;4194178;28;20056;-49
2021/07/15 07:05:04;;;;;;;0.00;0.00;;;23.00;91.70;;;;;;4202650;28;20056;-46
2021/07/15 07:07:27;;;;;;;0.00;0.00;;;23.00;91.80;;;;;;4208267;28;20556;-47
2021/07/15 07:09:49;;;;;;;0.05;0.05;;;23.00;91.70;;;;;;4210354;28;20060;-46
2021/07/15 07:12:11;;;;;;;0.30;0.30;;;23.00;91.80;;;;;;4197774;28;20063;-48
2021/07/15 07:14:34;;;;;;;0.20;0.20;;;23.00;91.70;;;;;;4211064;28;20055;-51
2021/07/15 07:16:56;;;;;;;0.85;0.85;;;23.00;91.70;;;;;;4209753;28;20044;-48
2021/07/15 07:19:18;;;;;;;0.43;0.43;;;23.00;91.70;;;;;;4210467;28;20048;-51
2021/07/15 07:21:40;;;;;;;0.13;0.13;;;22.90;91.70;;;;;;4209999;28;20036;-50
2021/07/15 07:24:05;;;;;;;0.10;0.10;;;23.00;91.70;;;;;;4199838;28;20047;-52
2021/07/15 07:26:27;;;;;;;0.10;0.10;;;23.00;91.70;;;;;;4210485;28;20052;-53
2021/07/15 07:28:49;;;;;;;0.30;0.30;;;23.00;91.70;;;;;;4210369;28;20079;-49
2021/07/15 07:31:11;;;;;;;0.20;0.20;;;23.00;91.70;;;;;;4202280;28;20056;-48
2021/07/15 07:33:40;;;;;;;0.28;0.28;;;22.90;91.70;;;;;;4194013;28;20057;-48
2021/07/15 07:36:03;;;;;;;0.28;0.28;;;23.00;91.70;;;;;;4191364;28;20051;-47
2021/07/15 07:38:25;;;;;;;0.00;0.00;;;22.90;91.70;;;;;;4208792;28;20490;-46
2021/07/15 07:40:48;;;;;;;0.85;0.85;;;22.90;91.70;;;;;;4194217;28;20136;-51
2021/07/15 07:43:10;;;;;;;3.72;1.35;;;22.90;91.70;;;;;;4193292;28;20069;-48
2021/07/15 07:45:47;;;;;;;0.40;0.40;;;22.90;91.70;;;;;;4208238;28;20170;-47
2021/07/15 07:48:12;;;;;;;0.20;0.20;;;22.90;91.70;;;;;;4193543;28;20045;-46
2021/07/15 07:50:35;;;;;;;0.00;0.00;;;22.90;91.70;;;;;;4191777;28;20086;-50
2021/07/15 07:52:58;;;;;;;0.00;0.00;;;22.90;91.70;;;;;;4208725;28;20051;-47
2021/07/15 07:55:20;;;;;;;0.05;0.05;;;22.90;91.70;;;;;;4209766;28;20052;-48
2021/07/15 07:57:43;;;;;;;1.45;0.65;;;22.90;91.70;;;;;;4209765;28;20055;-47
2021/07/15 08:00:09;;;;;;;1.75;1.23;;;22.90;91.70;;;;;;4209847;28;20155;-51
2021/07/15 08:02:34;;;;;;;0.00;0.00;;;22.90;91.70;;;;;;4193251;28;20062;-48
2021/07/15 08:04:57;;;;;;;0.90;0.45;;;22.90;91.70;;;;;;4192033;28;20040;-46
2021/07/15 08:07:19;;;;;;;1.35;1.35;;;22.90;91.70;;;;;;4209200;28;20454;-47
2021/07/15 08:09:44;;;;;;;0.00;0.00;;;22.90;91.70;;;;;;4204874;28;20131;-52
2021/07/15 08:12:21;;;;;;;0.10;0.10;;;22.90;91.70;;;;;;4206888;28;20048;-46
2021/07/15 08:14:46;;;;;;;3.55;0.65;;;22.90;91.70;;;;;;4209287;28;20048;-49
2021/07/15 08:17:08;;;;;;;0.50;0.50;;;22.90;91.70;;;;;;4206035;28;20466;-49
2021/07/15 08:19:30;;;;;;;0.80;0.57;;;22.90;91.70;;;;;;4192842;28;20671;-46
2021/07/15 08:21:52;;;;;;;9.45;1.52;;;22.90;91.80;;;;;;4201600;28;20487;-52
2021/07/15 08:24:15;;;;;;;0.80;0.77;;;22.90;91.80;;;;;;4209328;28;20057;-50
2021/07/15 08:26:37;;;;;;;0.10;0.10;;;22.90;91.80;;;;;;4193878;28;20067;-49
2021/07/15 08:28:59;;;;;;;3.83;0.43;;;22.90;91.80;;;;;;4207945;28;20052;-47
2021/07/15 08:31:23;;;;;;;1.25;1.25;;;22.80;91.80;;;;;;4200883;27;20457;-46
2021/07/15 08:33:46;;;;;;;0.00;0.00;;;22.90;91.90;;;;;;4209304;27;20055;-51
2021/07/15 08:36:08;;;;;;;0.17;0.17;;;22.90;91.90;;;;;;4209406;28;20164;-47
2021/07/15 08:38:31;;;;;;;1.75;0.45;;;22.90;92.30;;;;;;4209203;28;20048;-48
2021/07/15 08:40:53;;;;;;;12.15;1.88;;;22.80;91.80;;;;;;4204809;28;20056;-46
2021/07/15 08:43:15;;;;;;;0.28;0.28;;;22.90;91.80;;;;;;4209111;28;20410;-48
2021/07/15 08:45:40;;;;;;;0.90;0.90;;;22.80;92.00;;;;;;4208928;28;20052;-47
2021/07/15 08:48:07;;;;;;;0.00;0.00;;;22.80;91.80;;;;;;4208681;28;20406;-44
2021/07/15 08:50:30;;;;;;;0.55;0.50;;;22.80;91.80;;;;;;4207918;28;20052;-50
2021/07/15 08:52:52;;;;;;;0.20;0.20;;;22.80;91.80;;;;;;4208337;28;20101;-46
2021/07/15 08:56:36;;;;;;;0.70;0.70;;;22.80;91.70;;;;;;4207680;28;20074;-46
2021/07/15 08:58:06;;;;;;;0.68;0.68;;;22.80;91.70;;;;;;4235718;27;20043;-48
2021/07/15 09:00:28;;;;;;;0.57;0.57;;;22.80;91.70;;;;;;4208835;28;20048;-50
2021/07/15 09:02:50;;;;;;;0.00;0.00;;;22.80;91.70;;;;;;4207627;28;20051;-47
2021/07/15 09:05:14;;;;;;;0.15;0.15;;;22.80;91.70;;;;;;4208594;28;20139;-49
2021/07/15 09:07:38;;;;;;;1.23;1.20;;;22.80;91.70;;;;;;4209087;28;20070;-48
2021/07/15 09:10:00;;;;;;;0.65;0.65;;;22.80;91.70;;;;;;4208808;28;20059;-48
2021/07/15 09:12:23;;;;;;;20.20;1.67;;;22.80;91.70;;;;;;4208638;28;20059;-48
2021/07/15 09:14:47;;;;;;;1.05;1.02;;;22.80;91.70;;;;;;4207545;28;20051;-48
2021/07/15 09:17:10;;;;;;;0.65;0.65;;;22.80;91.70;;;;;;4191759;28;20056;-50
2021/07/15 09:19:32;;;;;;;0.20;0.20;;;22.80;91.70;;;;;;4191759;28;20048;-47
2021/07/15 09:22:08;;;;;;;0.20;0.20;;;22.80;91.70;;;;;;4191893;28;20040;-49
2021/07/15 09:24:33;;;;;;;0.20;0.20;;;22.80;91.70;;;;;;4191173;28;20084;-46
2021/07/15 09:26:57;;;;;;;0.32;0.32;;;22.80;91.70;;;;;;4191747;28;20154;-50
2021/07/15 09:29:19;;;;;;;0.10;0.10;;;22.80;91.70;;;;;;4191780;28;20057;-51
2021/07/15 09:31:52;;;;;;;1.73;1.20;;;22.80;91.70;;;;;;4191516;28;20052;-50
2021/07/15 09:34:15;;;;;;;1.25;0.90;;;22.80;91.70;;;;;;4191380;28;20402;-49
2021/07/15 09:36:41;;;;;;;0.00;0.00;;;22.80;92.00;;;;;;4185293;28;20534;-50
2021/07/15 09:39:17;;;;;;;0.08;0.03;;;22.80;91.60;;;;;;4173536;28;20048;-51
2021/07/15 09:41:39;;;;;;;0.43;0.43;;;22.80;91.70;;;;;;4174880;28;20672;-50
2021/07/15 09:44:02;;;;;;;0.77;0.50;;;22.80;91.70;;;;;;4180109;28;20106;-48
2021/07/15 09:46:25;;;;;;;0.20;0.20;;;22.80;91.60;;;;;;4191095;28;20130;-49
2021/07/15 09:48:49;;;;;;;0.25;0.25;;;22.80;91.60;;;;;;4190997;28;20135;-49
2021/07/15 09:51:15;;;;;;;0.57;0.57;;;22.80;92.00;;;;;;4191210;28;20143;-49
2021/07/15 09:53:47;;;;;;;0.13;0.13;;;22.70;91.60;;;;;;4191190;28;20462;-49
2021/07/15 09:56:13;;;;;;;0.40;0.40;;;22.80;91.60;;;;;;4206371;28;20518;-50
2021/07/15 09:58:36;;;;;;;0.20;0.20;;;22.70;91.60;;;;;;4199635;28;20047;-49
2021/07/15 10:01:03;;;;;;;1.40;1.10;;;22.70;91.60;;;;;;4198049;28;20584;-51
2021/07/15 10:03:34;;;;;;;0.80;0.80;;;22.70;91.60;;;;;;4208016;28;20858;-48
2021/07/15 10:06:01;;;;;;;0.25;0.25;;;22.70;91.60;;;;;;4208190;28;20055;-49
2021/07/15 10:08:27;;;;;;;0.73;0.73;;;22.70;91.50;;;;;;4200387;28;20059;-49
2021/07/15 10:10:49;;;;;;;0.43;0.32;;;22.70;91.50;;;;;;4207530;28;20079;-47
2021/07/15 10:13:14;;;;;;;0.05;0.05;;;22.70;91.60;;;;;;4207278;27;20131;-51
2021/07/15 10:15:37;;;;;;;0.00;0.00;;;22.70;91.50;;;;;;4207645;27;20046;-50
2021/07/15 10:17:59;;;;;;;0.10;0.10;;;22.70;91.50;;;;;;4192364;28;20070;-51
2021/07/15 10:20:22;;;;;;;1.70;1.60;;;22.70;91.50;;;;;;4207626;28;20385;-52
2021/07/15 10:22:45;;;;;;;0.05;0.05;;;22.70;91.50;;;;;;4206444;28;20055;-49
2021/07/15 10:25:08;;;;;;;0.68;0.68;;;22.70;91.50;;;;;;4207391;28;20052;-50
2021/07/15 10:27:42;;;;;;;0.20;0.20;;;22.70;91.50;;;;;;4205239;28;20054;-49
2021/07/15 10:30:06;;;;;;;0.10;0.10;;;22.80;91.50;;;;;;4207449;28;20448;-50
2021/07/15 10:32:30;;;;;;;0.17;0.17;;;22.80;91.50;;;;;;4191316;28;20052;-48
2021/07/15 10:34:54;;;;;;;0.25;0.25;;;22.80;91.90;;;;;;4206445;28;20485;-48
2021/07/15 10:37:17;;;;;;;0.17;0.17;;;22.80;91.40;;;;;;4207653;28;20055;-49
2021/07/15 10:39:40;;;;;;;0.08;0.08;;;22.80;91.40;;;;;;4207305;28;20043;-49
2021/07/15 10:42:01;;;;;;;1.17;1.17;;;22.80;91.80;;;;;;4191035;28;20098;-46
2021/07/15 10:44:24;;;;;;;0.75;0.75;;;22.80;91.40;;;;;;4198663;28;20456;-48
2021/07/15 10:46:49;;;;;;;0.30;0.30;;;22.80;91.40;;;;;;4196081;28;20048;-51
2021/07/15 10:49:16;;;;;;;9.95;2.97;;;22.80;91.40;;;;;;4190734;28;20056;-49
2021/07/15 10:51:39;;;;;;;0.75;0.43;;;22.80;91.40;;;;;;4190908;28;20052;-47
2021/07/15 10:54:03;;;;;;;0.32;0.32;;;22.80;91.40;;;;;;4190524;28;20503;-48
2021/07/15 10:56:25;;;;;;;0.10;0.10;;;22.70;91.30;;;;;;4190277;28;20044;-47
2021/07/15 10:58:50;;;;;;;26.10;1.35;;;22.70;91.30;;;;;;4191063;28;20048;-50
2021/07/15 11:01:35;;;;;;;0.52;0.52;;;22.80;91.30;;;;;;4190866;28;20056;-47
2021/07/15 11:04:08;;;;;;;0.00;0.00;;;22.80;91.30;;;;;;4203913;28;20067;-48
2021/07/15 11:06:36;;;;;;;6.50;1.60;;;22.80;91.20;;;;;;4205434;28;20051;-48
2021/07/15 11:09:00;;;;;;;0.10;0.10;;;22.80;91.20;;;;;;4207636;28;20051;-46
2021/07/15 11:11:36;;;;;;;1.40;1.35;;;22.80;91.20;;;;;;4207516;28;20561;-50
2021/07/15 11:13:58;;;;;;;1.08;0.60;;;22.80;91.10;;;;;;4205575;28;20066;-51
2021/07/15 11:16:51;;;;;;;1.45;1.35;;;22.80;91.10;;;;;;4207200;28;20057;-49
2021/07/15 11:19:55;;;;;;;0.20;0.20;;;22.80;91.10;;;;;;4206944;28;20509;-50
2021/07/15 11:22:39;;;;;;;0.10;0.10;;;22.80;91.10;;;;;;4196100;28;20513;-52
2021/07/15 11:25:06;;;;;;;0.00;0.00;;;22.80;91.10;;;;;;4207102;28;20040;-53
2021/07/15 11:27:34;;;;;;;0.20;0.20;;;22.80;91.10;;;;;;4189795;28;20080;-51
2021/07/15 11:29:56;;;;;;;0.00;0.00;;;22.80;91.10;;;;;;4190518;28;20043;-50
2021/07/15 11:32:26;;;;;;;0.95;0.95;;;22.80;91.10;;;;;;4190964;27;20060;-53
2021/07/15 11:34:54;;;;;;;0.57;0.57;;;22.80;91.00;;;;;;4195773;27;20044;-48
2021/07/15 11:37:37;;;;;;;0.00;0.00;;;22.80;91.00;;;;;;4206581;28;20052;-49
2021/07/15 11:40:01;;;;;;;0.68;0.68;;;22.70;91.40;;;;;;4210232;28;20043;-53
2021/07/15 11:42:24;;;;;;;0.00;0.00;;;22.70;91.10;;;;;;4206454;27;20051;-53
2021/07/15 11:44:58;;;;;;;0.00;0.00;;;22.70;91.10;;;;;;4210167;28;20051;-48
2021/07/15 11:47:49;;;;;;;0.10;0.10;;;22.70;91.10;;;;;;4209418;28;20093;-49
2021/07/15 11:50:36;;;;;;;0.10;0.10;;;22.70;91.30;;;;;;4208179;28;20517;-49
2021/07/15 11:53:15;;;;;;;0.20;0.20;;;22.70;91.40;;;;;;4197621;28;20804;-51
2021/07/15 11:55:37;;;;;;;0.00;0.00;;;22.80;91.50;;;;;;4195237;27;20044;-48
2021/07/15 11:58:00;;;;;;;0.10;0.10;;;22.80;91.40;;;;;;4192568;27;20052;-51
2021/07/15 12:00:22;;;;;;;0.10;0.10;;;22.80;91.40;;;;;;4195462;28;20062;-49
2021/07/15 12:03:01;;;;;;;0.10;0.10;;;22.80;91.40;;;;;;4207792;28;20040;-49
2021/07/15 12:05:28;;;;;;;0.05;0.05;;;22.80;91.20;;;;;;4209703;28;20128;-50
2021/07/15 12:08:07;;;;;;;1.02;1.02;;;22.70;91.20;;;;;;4208656;28;20051;-52
2021/07/15 12:10:33;;;;;;;0.10;0.10;;;22.70;91.20;;;;;;4207889;28;20043;-52
2021/07/15 12:12:58;;;;;;;0.90;0.90;;;22.70;91.20;;;;;;4209962;28;20048;-52
2021/07/15 12:15:24;;;;;;;0.00;0.00;;;22.70;91.20;;;;;;4208458;28;20065;-49
2021/07/15 12:17:49;;;;;;;0.10;0.10;;;22.70;91.20;;;;;;4194284;28;20185;-47
2021/07/15 12:20:13;;;;;;;0.85;0.60;;;22.70;91.20;;;;;;4209448;28;20471;-49
2021/07/15 12:22:43;;;;;;;0.00;0.00;;;22.70;91.20;;;;;;4209739;28;20043;-50
2021/07/15 12:25:18;;;;;;;0.10;0.10;;;22.70;91.20;;;;;;4209033;28;20051;-50
2021/07/15 12:27:41;;;;;;;0.00;0.00;;;22.70;91.10;;;;;;4208602;28;20698;-49
2021/07/15 12:30:04;;;;;;;0.22;0.22;;;22.70;91.00;;;;;;4209501;28;20070;-47
2021/07/15 12:32:28;;;;;;;0.28;0.28;;;22.70;90.90;;;;;;4192887;28;20045;-48
2021/07/15 12:34:50;;;;;;;0.88;0.88;;;22.70;90.90;;;;;;4192543;28;20072;-46